Saturday, August 24, 2019, 12:10 AM PDT
Back to Local

KBFI, Seattle Boeing Field

Location: Seattle, WA, United States Lat: 47.55
Local Time: 12:10 AM PDT ( 7:10 GMT) Lon: -122.317
Time Zone: US/Pacific Elev: 16 ft

Show me the last for .
Show Decoded

2019-08-23 23:53 METAR KBFI 240653Z VRB03KT 10SM OVC047 18/12 A2992 RMK AO2 SLP131 T01830122 =
2019-08-23 22:53 METAR KBFI 240553Z 30003KT 10SM OVC050 18/12 A2994 RMK AO2 SLP137 T01780122
                 10217 20172 51004 =
2019-08-23 21:53 METAR KBFI 240453Z 31006KT 10SM BKN050 BKN100 18/12 A2993 RMK AO2 SLP136
                 T01780122 =
2019-08-23 20:53 METAR KBFI 240353Z 27004KT 10SM BKN050 OVC100 18/12 A2993 RMK AO2 SLP135
                 T01780117 =
2019-08-23 19:53 METAR KBFI 240253Z 31004KT 10SM BKN100 19/11 A2993 RMK AO2 SLP133 T01940106
                 53004 =
2019-08-23 18:53 METAR KBFI 240153Z VRB04KT 10SM SCT010 BKN200 20/10 A2991 RMK AO2 SLP129
                 T02000100 =
2019-08-23 17:53 METAR KBFI 240053Z 30004KT 10SM SCT010 OVC200 21/11 A2991 RMK AO2 SLP128
                 T02110111 =
2019-08-23 16:53 METAR KBFI 232353Z COR 31004KT 10SM SCT010 BKN200 22/11 A2991 RMK AO2 SLP129
                 T02170111 10228 20183 56013 =
2019-08-23 15:53 METAR KBFI 232253Z VRB04KT 10SM BKN110 22/11 A2993 RMK AO2 SLP133 T02170111 =
2019-08-23 14:53 METAR KBFI 232153Z 00000KT 10SM BKN110 23/11 A2992 RMK AO2 SLP132 T02280111 =
2019-08-23 13:53 METAR KBFI 232053Z 07003KT 10SM OVC110 21/11 A2995 RMK AO2 SLP141 T02110106
                 58012 =
2019-08-23 12:53 METAR KBFI 231953Z VRB03KT 10SM SCT200 21/11 A2998 RMK AO2 SLP151 T02060111 =
2019-08-23 11:53 METAR KBFI 231853Z 32009G17KT 10SM SCT022 BKN200 19/11 A2998 RMK AO2 SLP152
                 T01940106 =
2019-08-23 10:53 METAR KBFI 231753Z COR VRB03KT 10SM FEW025 SCT200 18/12 A2999 RMK AO2 SLP153
                 T01830117 10189 20128 57007 =
2019-08-23 09:53 METAR KBFI 231653Z 28003KT 10SM SCT011 SCT020 BKN250 18/13 A3000 RMK AO2 SLP157
                 T01780128 =
2019-08-23 08:53 METAR KBFI 231553Z 08004KT 10SM SCT011 SCT020 BKN250 17/13 A3000 RMK AO2 PRESFR
                 SLP157 T01720128 =
2019-08-23 07:53 METAR KBFI 231453Z 00000KT 10SM SCT010 SCT200 14/12 A3001 RMK AO2 SLP160
                 T01440117 51005 =
2019-08-23 06:53 METAR KBFI 231353Z 15005KT 10SM SCT250 13/11 A3000 RMK AO2 SLP160 T01330111 =
2019-08-23 05:53 METAR KBFI 231253Z 16004KT 10SM SCT250 13/11 A2999 RMK AO2 SLP156 T01330106 =
2019-08-23 04:53 METAR KBFI 231153Z 18005KT 10SM CLR 14/11 A2999 RMK AO2 SLP155 T01390111 10172
                 20133 56008 =
2019-08-23 03:53 METAR KBFI 231053Z 14003KT 10SM CLR 14/11 A2999 RMK AO2 SLP156 T01390111 =
2019-08-23 02:53 METAR KBFI 230953Z 00000KT 10SM CLR 15/12 A3000 RMK AO2 SLP157 T01500117 =
2019-08-23 01:53 METAR KBFI 230853Z 16004KT 10SM CLR 14/12 A3001 RMK AO2 SLP163 T01440117 57006 =
2019-08-23 00:53 METAR KBFI 230753Z 15004KT 10SM CLR 16/12 A3002 RMK AO2 SLP164 T01610117
                 402280144 =

Support USWX by starting your Amazon purchase here.